Time;durP1;ratioP1;P1;durP2;ratioP2;P2;SDS_P1;SDS_P2;PMS_P1;PMS_P2;Temp;Humidity;BMP_temperature;BMP_pressure;BME280_temperature;BME280_humidity;BME280_pressure;Samples;Min_cycle;Max_cycle;Signal;HPM_P1;HPM_P2
2023/10/10 00:00:54;;;;;;;18.10;8.55;;;;;;;;;;5084188;28;20208;-73
2023/10/10 00:03:21;;;;;;;19.10;9.20;;;;;;;;;;5084231;28;20286;-73
2023/10/10 00:05:46;;;;;;;17.95;9.20;;;;;;;;;;5076045;28;20192;-73
2023/10/10 00:08:12;;;;;;;20.13;8.57;;;;;;;;;;5089477;28;20619;-73
2023/10/10 00:10:50;;;;;;;14.07;8.05;;;;;;;;;;5087662;28;20183;-73
2023/10/10 00:13:26;;;;;;;13.00;8.27;;;;;;;;;;5069105;28;20219;-73
2023/10/10 00:15:55;;;;;;;17.67;9.10;;;;;;;;;;5070988;28;20246;-73
2023/10/10 00:18:21;;;;;;;19.02;9.48;;;;;;;;;;5053630;28;20194;-73
2023/10/10 00:21:13;;;;;;;16.45;9.02;;;;;;;;;;5098786;28;20236;-73
2023/10/10 00:23:47;;;;;;;16.33;8.65;;;;;;;;;;5090404;28;20226;-73
2023/10/10 00:26:14;;;;;;;13.63;8.80;;;;;;;;;;5090477;28;20195;-73
2023/10/10 00:28:41;;;;;;;18.83;10.15;;;;;;;;;;5091339;28;20282;-73
2023/10/10 00:31:12;;;;;;;17.88;9.20;;;;;;;;;;5090702;28;20266;-73
2023/10/10 00:33:40;;;;;;;16.48;8.98;;;;;;;;;;5077287;28;20208;-73
2023/10/10 00:36:12;;;;;;;14.82;9.18;;;;;;;;;;5092243;28;20267;-73
2023/10/10 00:38:38;;;;;;;16.65;9.43;;;;;;;;;;5071275;28;20576;-73
2023/10/10 00:41:07;;;;;;;17.88;9.70;;;;;;;;;;5080378;28;20195;-74
2023/10/10 00:43:33;;;;;;;17.15;9.38;;;;;;;;;;5089592;28;20196;-74
2023/10/10 00:46:04;;;;;;;20.80;9.73;;;;;;;;;;5084640;28;20652;-74
2023/10/10 00:48:32;;;;;;;15.40;9.77;;;;;;;;;;5071277;28;20195;-73
2023/10/10 00:51:08;;;;;;;19.30;9.80;;;;;;;;;;5074291;28;20192;-73
2023/10/10 00:53:35;;;;;;;14.60;8.57;;;;;;;;;;5090274;28;20295;-73
2023/10/10 00:56:05;;;;;;;16.92;8.90;;;;;;;;;;5094181;28;20219;-74
2023/10/10 00:58:37;;;;;;;19.17;10.13;;;;;;;;;;5099208;28;20200;-73
2023/10/10 01:01:10;;;;;;;16.58;9.07;;;;;;;;;;5079801;28;20264;-73
2023/10/10 01:03:39;;;;;;;16.88;9.70;;;;;;;;;;5094634;28;20746;-73
2023/10/10 01:06:24;;;;;;;15.63;9.68;;;;;;;;;;5094298;28;20247;-73
2023/10/10 01:11:38;;;;;;;16.48;9.35;;;;;;;;;;5086230;28;20234;-73
2023/10/10 01:14:04;;;;;;;19.15;9.50;;;;;;;;;;5078457;28;20228;-73
2023/10/10 01:16:31;;;;;;;17.73;9.95;;;;;;;;;;5098176;28;20672;-73
2023/10/10 01:18:59;;;;;;;16.00;10.25;;;;;;;;;;5095159;28;20183;-73
2023/10/10 01:21:32;;;;;;;18.23;9.20;;;;;;;;;;5096687;28;20206;-73
2023/10/10 01:24:11;;;;;;;18.33;9.75;;;;;;;;;;5084017;28;20631;-73
2023/10/10 01:26:44;;;;;;;18.48;10.80;;;;;;;;;;5083425;28;20561;-73
2023/10/10 01:31:42;;;;;;;21.05;10.65;;;;;;;;;;5068587;28;20639;-73
2023/10/10 01:34:09;;;;;;;15.40;11.55;;;;;;;;;;5105065;28;20195;-73
2023/10/10 01:36:38;;;;;;;22.33;10.57;;;;;;;;;;5103398;28;20200;-73
2023/10/10 01:39:20;;;;;;;17.98;11.30;;;;;;;;;;5092731;28;20506;-73
2023/10/10 01:41:48;;;;;;;20.33;11.93;;;;;;;;;;5098398;28;20850;-73
2023/10/10 01:44:22;;;;;;;18.35;10.90;;;;;;;;;;5078797;28;20192;-73
2023/10/10 01:46:50;;;;;;;19.90;12.80;;;;;;;;;;5088373;28;20194;-73
2023/10/10 01:49:25;;;;;;;18.42;12.65;;;;;;;;;;5089947;28;20210;-73
2023/10/10 01:51:55;;;;;;;25.85;13.75;;;;;;;;;;5094012;28;20187;-73
2023/10/10 01:54:29;;;;;;;21.30;13.70;;;;;;;;;;5089579;28;20176;-73
2023/10/10 01:56:55;;;;;;;22.00;13.57;;;;;;;;;;5106512;28;20187;-73
2023/10/10 01:59:24;;;;;;;21.52;13.02;;;;;;;;;;5094278;28;20560;-73
2023/10/10 02:01:52;;;;;;;23.30;13.93;;;;;;;;;;5087308;28;20294;-73
2023/10/10 02:04:21;;;;;;;29.95;14.90;;;;;;;;;;5077423;28;20613;-73
2023/10/10 02:06:55;;;;;;;24.85;15.48;;;;;;;;;;5050581;28;20324;-73
2023/10/10 02:11:54;;;;;;;22.67;15.60;;;;;;;;;;5068435;28;20189;-73
2023/10/10 02:14:26;;;;;;;26.17;15.50;;;;;;;;;;5066911;28;20185;-73
2023/10/10 02:16:55;;;;;;;24.13;15.48;;;;;;;;;;5069713;28;20303;-73
2023/10/10 02:19:32;;;;;;;24.17;16.27;;;;;;;;;;5068371;28;20193;-73
2023/10/10 02:24:48;;;;;;;28.35;16.10;;;;;;;;;;5066392;28;20196;-73
2023/10/10 02:27:22;;;;;;;31.05;19.05;;;;;;;;;;5070617;28;20526;-73
2023/10/10 02:29:49;;;;;;;28.40;18.27;;;;;;;;;;5062416;28;20192;-73
2023/10/10 02:32:21;;;;;;;28.00;18.85;;;;;;;;;;5071296;28;20743;-73
2023/10/10 02:35:00;;;;;;;27.27;18.20;;;;;;;;;;5069429;28;20214;-73
2023/10/10 02:42:35;;;;;;;30.90;18.92;;;;;;;;;;5068988;28;20184;-73
2023/10/10 02:45:00;;;;;;;35.03;20.63;;;;;;;;;;5069206;28;20186;-73
2023/10/10 02:47:32;;;;;;;32.40;20.52;;;;;;;;;;5067886;28;20493;-73
2023/10/10 02:50:12;;;;;;;32.88;20.42;;;;;;;;;;5068329;28;20189;-73
2023/10/10 02:52:39;;;;;;;39.72;22.63;;;;;;;;;;5064812;28;20254;-73
2023/10/10 02:55:14;;;;;;;29.17;20.80;;;;;;;;;;5076669;28;20600;-72
2023/10/10 02:57:41;;;;;;;35.47;21.33;;;;;;;;;;5075385;28;20211;-72
2023/10/10 03:00:15;;;;;;;38.80;22.35;;;;;;;;;;5076366;28;20195;-73
2023/10/10 03:02:49;;;;;;;31.05;20.60;;;;;;;;;;5073769;28;20628;-73
2023/10/10 03:05:16;;;;;;;32.20;22.95;;;;;;;;;;5082526;28;20224;-73
2023/10/10 03:07:43;;;;;;;41.95;24.98;;;;;;;;;;5074058;28;20191;-73
2023/10/10 03:10:22;;;;;;;40.30;26.95;;;;;;;;;;5094540;28;20396;-73
2023/10/10 03:12:52;;;;;;;39.90;25.80;;;;;;;;;;5088054;28;20207;-72
2023/10/10 03:18:04;;;;;;;34.65;24.38;;;;;;;;;;5093809;28;20187;-73
2023/10/10 03:25:48;;;;;;;47.78;27.83;;;;;;;;;;5088183;28;20188;-73
2023/10/10 03:28:21;;;;;;;39.10;25.42;;;;;;;;;;5089688;28;20195;-73
2023/10/10 03:30:51;;;;;;;41.22;24.52;;;;;;;;;;5054291;28;20181;-73
2023/10/10 03:33:36;;;;;;;34.10;22.33;;;;;;;;;;5073824;28;20215;-73
2023/10/10 05:25:08;;;;;;;52.25;32.90;;;;;;;;;;5089396;28;20203;-73
2023/10/10 05:27:41;;;;;;;53.70;33.00;;;;;;;;;;5035470;28;20250;-74
2023/10/10 05:30:07;;;;;;;58.35;32.20;;;;;;;;;;5087415;28;20215;-73
2023/10/10 05:32:32;;;;;;;53.92;33.92;;;;;;;;;;5060003;28;20208;-73
2023/10/10 05:34:58;;;;;;;55.65;34.03;;;;;;;;;;5052909;28;20862;-73
2023/10/10 05:37:27;;;;;;;65.75;35.92;;;;;;;;;;5077972;28;20188;-73
2023/10/10 05:39:56;;;;;;;55.38;33.58;;;;;;;;;;5088883;28;20380;-72
2023/10/10 05:42:26;;;;;;;61.97;36.33;;;;;;;;;;5088202;28;20681;-72
2023/10/10 05:44:52;;;;;;;58.95;35.85;;;;;;;;;;5090500;28;20237;-72
2023/10/10 05:47:18;;;;;;;54.38;33.20;;;;;;;;;;5091401;28;20752;-73
2023/10/10 05:49:43;;;;;;;59.80;35.47;;;;;;;;;;5048062;28;20383;-73
2023/10/10 05:52:09;;;;;;;56.72;35.30;;;;;;;;;;5092072;28;20188;-73
2023/10/10 05:54:35;;;;;;;60.85;36.22;;;;;;;;;;5085689;28;20195;-73
2023/10/10 05:57:02;;;;;;;61.17;37.05;;;;;;;;;;5078350;28;20277;-73
2023/10/10 05:59:28;;;;;;;55.58;32.92;;;;;;;;;;5099502;28;20187;-73
2023/10/10 06:01:53;;;;;;;58.13;34.90;;;;;;;;;;5087690;28;20220;-73
2023/10/10 06:04:19;;;;;;;66.13;36.92;;;;;;;;;;5096462;28;20280;-73
2023/10/10 06:06:46;;;;;;;69.78;40.45;;;;;;;;;;5073057;28;20188;-72
2023/10/10 06:09:18;;;;;;;70.00;39.92;;;;;;;;;;5085186;28;20203;-73
2023/10/10 06:11:45;;;;;;;66.97;39.58;;;;;;;;;;5062812;28;20282;-74
2023/10/10 06:14:11;;;;;;;67.97;38.47;;;;;;;;;;5083418;28;20311;-74
2023/10/10 06:16:37;;;;;;;72.78;42.78;;;;;;;;;;5086308;28;20237;-73
2023/10/10 06:19:03;;;;;;;69.35;40.30;;;;;;;;;;5090517;28;20275;-73
2023/10/10 06:21:29;;;;;;;74.30;44.00;;;;;;;;;;5095714;28;20268;-73
2023/10/10 06:23:55;;;;;;;71.03;42.60;;;;;;;;;;5092072;28;20184;-72
2023/10/10 06:26:21;;;;;;;75.40;43.53;;;;;;;;;;5093221;28;20568;-73
2023/10/10 06:28:53;;;;;;;75.85;44.53;;;;;;;;;;5096183;28;20252;-73
2023/10/10 06:31:31;;;;;;;83.32;46.63;;;;;;;;;;5094012;28;20184;-73
2023/10/10 06:33:57;;;;;;;87.45;47.22;;;;;;;;;;5088527;28;20295;-73
2023/10/10 06:39:12;;;;;;;76.88;45.38;;;;;;;;;;5099463;28;20190;-72
2023/10/10 06:41:42;;;;;;;80.80;44.83;;;;;;;;;;5074162;28;20192;-73
2023/10/10 06:44:13;;;;;;;74.47;41.92;;;;;;;;;;5089105;28;20184;-72
2023/10/10 06:46:40;;;;;;;85.95;43.67;;;;;;;;;;5073316;28;20187;-70
2023/10/10 06:49:06;;;;;;;84.55;43.10;;;;;;;;;;5076080;28;20188;-72
2023/10/10 06:51:33;;;;;;;74.55;41.33;;;;;;;;;;5073665;28;20187;-70
2023/10/10 06:53:59;;;;;;;67.57;37.42;;;;;;;;;;5088347;28;20219;-72
2023/10/10 06:59:16;;;;;;;87.38;42.83;;;;;;;;;;5072525;28;20199;-70
2023/10/10 07:01:45;;;;;;;70.97;40.55;;;;;;;;;;5086969;28;20284;-72
2023/10/10 07:04:13;;;;;;;72.57;39.38;;;;;;;;;;5077026;28;20235;-72
2023/10/10 07:06:47;;;;;;;68.45;38.92;;;;;;;;;;5080246;28;20195;-72
2023/10/10 07:09:29;;;;;;;73.05;40.28;;;;;;;;;;5083828;28;20190;-72
2023/10/10 07:12:09;;;;;;;67.78;39.30;;;;;;;;;;5088215;28;20227;-70
2023/10/10 07:14:40;;;;;;;71.07;38.55;;;;;;;;;;5071172;28;20184;-69
2023/10/10 07:17:11;;;;;;;67.10;38.75;;;;;;;;;;5079296;28;20584;-72
2023/10/10 07:19:54;;;;;;;63.47;36.33;;;;;;;;;;5080984;28;20188;-71
2023/10/10 07:22:21;;;;;;;62.80;38.40;;;;;;;;;;5076808;28;20185;-71
2023/10/10 07:24:48;;;;;;;68.95;40.58;;;;;;;;;;5079517;28;20243;-71
2023/10/10 07:27:13;;;;;;;67.20;39.60;;;;;;;;;;5072431;28;20385;-71
2023/10/10 07:32:16;;;;;;;68.18;39.72;;;;;;;;;;5090003;28;20188;-73
2023/10/10 07:34:51;;;;;;;65.22;38.22;;;;;;;;;;5088687;28;20250;-73
2023/10/10 07:37:17;;;;;;;69.38;39.30;;;;;;;;;;5086575;28;20557;-72
2023/10/10 07:39:55;;;;;;;64.05;39.10;;;;;;;;;;5080720;28;20261;-71
2023/10/10 07:42:27;;;;;;;70.53;41.00;;;;;;;;;;5083371;28;20192;-72
2023/10/10 07:44:54;;;;;;;68.82;42.08;;;;;;;;;;5086948;28;20190;-71
2023/10/10 07:47:25;;;;;;;61.55;39.25;;;;;;;;;;5063679;28;20303;-69
2023/10/10 07:49:55;;;;;;;68.85;41.33;;;;;;;;;;5085449;28;20192;-69
2023/10/10 07:52:21;;;;;;;62.15;40.38;;;;;;;;;;5056623;28;20213;-70
2023/10/10 07:54:51;;;;;;;62.63;41.70;;;;;;;;;;5075444;28;20185;-70
2023/10/10 07:57:22;;;;;;;61.38;39.40;;;;;;;;;;5088607;28;20188;-69
2023/10/10 07:59:55;;;;;;;64.85;39.70;;;;;;;;;;5079384;28;20569;-70
2023/10/10 08:02:49;;;;;;;62.22;39.70;;;;;;;;;;5078087;28;20211;-70
2023/10/10 08:05:11;;;;;;;61.20;41.00;;;;;;;;;;5087952;28;20219;-71
2023/10/10 08:07:37;;;;;;;63.72;39.80;;;;;;;;;;5088447;28;20526;-71
2023/10/10 08:10:12;;;;;;;63.22;42.15;;;;;;;;;;5082655;28;20180;-71
2023/10/10 08:12:38;;;;;;;66.47;40.72;;;;;;;;;;5082664;28;20288;-70
2023/10/10 08:15:25;;;;;;;56.45;39.35;;;;;;;;;;5075621;28;20188;-72
2023/10/10 08:17:54;;;;;;;68.20;42.38;;;;;;;;;;5073291;28;20200;-70
2023/10/10 08:20:31;;;;;;;68.43;45.58;;;;;;;;;;5076714;28;20287;-71
2023/10/10 08:22:59;;;;;;;70.82;45.10;;;;;;;;;;5070787;28;20192;-70
2023/10/10 08:25:25;;;;;;;69.32;45.50;;;;;;;;;;5091610;28;20195;-72
2023/10/10 08:27:50;;;;;;;66.53;43.25;;;;;;;;;;5075051;28;20286;-73
2023/10/10 08:30:16;;;;;;;72.78;45.63;;;;;;;;;;5083977;28;20188;-73
2023/10/10 08:32:41;;;;;;;72.93;45.22;;;;;;;;;;5087269;28;21558;-72
2023/10/10 08:35:08;;;;;;;65.10;44.75;;;;;;;;;;5079212;28;20195;-73
2023/10/10 08:37:33;;;;;;;69.57;45.00;;;;;;;;;;5072673;28;20192;-71
2023/10/10 08:40:15;;;;;;;72.32;46.10;;;;;;;;;;5086379;28;20523;-72
2023/10/10 08:42:43;;;;;;;74.90;47.03;;;;;;;;;;5082253;28;20860;-73
2023/10/10 08:45:22;;;;;;;68.05;45.17;;;;;;;;;;5068277;28;20180;-71
2023/10/10 08:47:50;;;;;;;73.63;45.88;;;;;;;;;;5087317;28;20671;-73
2023/10/10 08:50:17;;;;;;;67.82;44.47;;;;;;;;;;5061568;28;20199;-73
2023/10/10 08:52:42;;;;;;;73.22;47.20;;;;;;;;;;5071378;28;20281;-72
2023/10/10 08:55:13;;;;;;;72.28;46.22;;;;;;;;;;5102346;28;20199;-73
2023/10/10 08:57:38;;;;;;;72.07;45.70;;;;;;;;;;5074813;28;20177;-73
2023/10/10 09:00:11;;;;;;;66.88;44.72;;;;;;;;;;5083251;28;20192;-70
2023/10/10 09:02:40;;;;;;;70.70;45.20;;;;;;;;;;5085768;28;20325;-73
2023/10/10 09:05:07;;;;;;;69.47;45.58;;;;;;;;;;5073263;28;20703;-73
2023/10/10 09:07:34;;;;;;;62.25;42.25;;;;;;;;;;5064663;28;20656;-71
2023/10/10 09:10:06;;;;;;;58.92;37.28;;;;;;;;;;5079444;28;20183;-70
2023/10/10 09:12:52;;;;;;;68.13;41.22;;;;;;;;;;5071482;28;20212;-70
2023/10/10 09:15:18;;;;;;;62.92;39.38;;;;;;;;;;5082800;28;20184;-70
2023/10/10 09:17:45;;;;;;;62.13;39.58;;;;;;;;;;5086215;28;20192;-68
2023/10/10 09:20:32;;;;;;;55.15;37.92;;;;;;;;;;5091601;28;20500;-71
2023/10/10 09:23:04;;;;;;;64.63;41.08;;;;;;;;;;5070997;28;20268;-73
2023/10/10 09:25:41;;;;;;;65.78;40.05;;;;;;;;;;5083075;28;20179;-71
2023/10/10 09:28:10;;;;;;;58.47;36.70;;;;;;;;;;5075951;28;20392;-73
2023/10/10 09:30:48;;;;;;;59.33;37.47;;;;;;;;;;5090089;28;20324;-74
2023/10/10 09:35:48;;;;;;;55.85;35.78;;;;;;;;;;5064829;28;20275;-72
2023/10/10 09:38:19;;;;;;;53.97;33.63;;;;;;;;;;5070388;28;20215;-73
2023/10/10 09:40:48;;;;;;;47.20;32.05;;;;;;;;;;5081703;28;20192;-72
2023/10/10 09:43:24;;;;;;;50.88;33.75;;;;;;;;;;5097056;28;20698;-70
2023/10/10 09:46:10;;;;;;;49.47;32.03;;;;;;;;;;5080528;28;20187;-71
2023/10/10 09:51:30;;;;;;;48.95;30.33;;;;;;;;;;5089153;28;20282;-71
2023/10/10 09:54:15;;;;;;;45.97;31.08;;;;;;;;;;5093189;28;20214;-72
2023/10/10 09:56:45;;;;;;;43.20;28.23;;;;;;;;;;5083495;28;20661;-73
2023/10/10 09:59:12;;;;;;;40.55;27.85;;;;;;;;;;5084562;28;20191;-71
2023/10/10 10:01:44;;;;;;;36.47;25.85;;;;;;;;;;5057997;28;20208;-70
2023/10/10 10:04:18;;;;;;;37.42;25.50;;;;;;;;;;5101935;28;20299;-72
2023/10/10 10:07:18;;;;;;;38.08;25.17;;;;;;;;;;5095762;28;20188;-69
2023/10/10 10:10:09;;;;;;;37.15;22.42;;;;;;;;;;5070083;28;20188;-71
2023/10/10 10:13:00;;;;;;;34.78;21.65;;;;;;;;;;5098037;28;20215;-72
2023/10/10 10:15:57;;;;;;;33.85;20.88;;;;;;;;;;5037956;28;20338;-72
2023/10/10 10:18:27;;;;;;;33.13;21.13;;;;;;;;;;5076984;28;20186;-71
2023/10/10 10:23:45;;;;;;;29.67;19.73;;;;;;;;;;5081605;28;20693;-71
2023/10/10 10:26:31;;;;;;;31.75;18.42;;;;;;;;;;5080294;28;20190;-68
2023/10/10 10:28:57;;;;;;;28.02;19.23;;;;;;;;;;5082371;28;20193;-69
2023/10/10 10:31:28;;;;;;;25.98;18.67;;;;;;;;;;5086690;28;20514;-71
2023/10/10 10:34:23;;;;;;;26.02;18.80;;;;;;;;;;5104942;28;20208;-69
2023/10/10 10:36:55;;;;;;;31.10;17.65;;;;;;;;;;5084604;28;20743;-72
2023/10/10 10:39:26;;;;;;;23.15;17.23;;;;;;;;;;5065742;28;20193;-73
2023/10/10 10:41:59;;;;;;;31.08;16.77;;;;;;;;;;5082988;28;20184;-73
2023/10/10 10:44:46;;;;;;;23.42;16.13;;;;;;;;;;5081655;28;20185;-72
2023/10/10 10:47:45;;;;;;;23.20;15.00;;;;;;;;;;5089619;28;20196;-72
2023/10/10 10:50:28;;;;;;;25.65;15.18;;;;;;;;;;5060337;28;20185;-71
2023/10/10 10:52:58;;;;;;;26.50;15.02;;;;;;;;;;5070264;28;20679;-72
2023/10/10 10:55:28;;;;;;;25.70;15.55;;;;;;;;;;5068160;28;20299;-70
2023/10/10 10:58:20;;;;;;;24.98;15.18;;;;;;;;;;5064897;28;20208;-72
2023/10/10 11:03:43;;;;;;;20.67;13.65;;;;;;;;;;5089986;28;20211;-74
2023/10/10 11:06:10;;;;;;;21.85;12.95;;;;;;;;;;5082553;28;20180;-68
2023/10/10 11:14:00;;;;;;;20.48;13.45;;;;;;;;;;5082288;28;20271;-75
2023/10/10 11:16:37;;;;;;;21.13;13.43;;;;;;;;;;5099595;28;20203;-75
2023/10/10 11:19:12;;;;;;;22.83;12.57;;;;;;;;;;5089583;28;20669;-73
2023/10/10 11:21:48;;;;;;;22.98;12.65;;;;;;;;;;5091729;28;20562;-75
2023/10/10 11:24:24;;;;;;;17.85;13.20;;;;;;;;;;5082612;28;20346;-71
2023/10/10 11:29:47;;;;;;;19.98;12.63;;;;;;;;;;5063588;28;20188;-71
2023/10/10 11:32:13;;;;;;;19.90;11.52;;;;;;;;;;5087091;28;20562;-72
2023/10/10 11:34:44;;;;;;;20.63;12.50;;;;;;;;;;5093069;28;20378;-71
2023/10/10 11:37:15;;;;;;;21.77;11.75;;;;;;;;;;5088626;28;20192;-68
2023/10/10 11:39:47;;;;;;;17.35;11.88;;;;;;;;;;5084359;28;20181;-70
2023/10/10 11:42:35;;;;;;;19.35;12.02;;;;;;;;;;5089818;28;20188;-72
2023/10/10 11:45:05;;;;;;;16.95;11.52;;;;;;;;;;5080539;28;20195;-73
2023/10/10 11:47:42;;;;;;;21.38;12.43;;;;;;;;;;5089568;28;20252;-72
2023/10/10 11:50:11;;;;;;;18.88;11.70;;;;;;;;;;5050636;28;20604;-73
2023/10/10 11:53:14;;;;;;;17.60;11.38;;;;;;;;;;5078832;28;20622;-72
2023/10/10 11:55:42;;;;;;;16.67;10.45;;;;;;;;;;4979986;28;20195;-68
2023/10/10 11:58:08;;;;;;;16.80;11.13;;;;;;;;;;5064018;28;20227;-73
2023/10/10 12:00:43;;;;;;;18.00;11.23;;;;;;;;;;5079650;28;20224;-74
2023/10/10 12:03:13;;;;;;;17.70;11.68;;;;;;;;;;5094016;28;20183;-74
2023/10/10 12:05:51;;;;;;;21.55;10.43;;;;;;;;;;5082068;28;20184;-74
2023/10/10 12:08:24;;;;;;;17.60;10.82;;;;;;;;;;5089694;28;20631;-72
2023/10/10 12:10:56;;;;;;;22.38;11.55;;;;;;;;;;5086253;28;20279;-71
2023/10/10 12:13:44;;;;;;;18.27;11.40;;;;;;;;;;5084951;28;20291;-71
2023/10/10 12:16:07;;;;;;;23.17;10.70;;;;;;;;;;5087024;28;20205;-73
2023/10/10 12:18:49;;;;;;;19.80;12.38;;;;;;;;;;5082131;28;20203;-71
2023/10/10 12:21:25;;;;;;;19.58;12.02;;;;;;;;;;5083450;28;20556;-70
2023/10/10 12:23:56;;;;;;;20.23;12.50;;;;;;;;;;5085673;28;20185;-68
2023/10/10 12:26:22;;;;;;;18.65;11.15;;;;;;;;;;5086101;28;20192;-70
2023/10/10 12:28:48;;;;;;;21.35;11.95;;;;;;;;;;5088014;28;20215;-70
2023/10/10 12:31:17;;;;;;;15.50;10.32;;;;;;;;;;5075179;28;20274;-72
2023/10/10 12:33:47;;;;;;;16.83;10.32;;;;;;;;;;5079154;28;20224;-73
2023/10/10 12:36:13;;;;;;;15.50;10.68;;;;;;;;;;5075593;28;20199;-71
2023/10/10 12:38:38;;;;;;;17.85;10.95;;;;;;;;;;5096876;28;20183;-72
2023/10/10 12:41:11;;;;;;;16.73;10.30;;;;;;;;;;5088928;28;20275;-73
2023/10/10 12:43:37;;;;;;;16.02;9.85;;;;;;;;;;5081315;28;20587;-68
2023/10/10 12:46:04;;;;;;;17.38;11.55;;;;;;;;;;5087779;28;20192;-71
2023/10/10 12:48:31;;;;;;;18.65;10.75;;;;;;;;;;5073423;28;20211;-74
2023/10/10 12:51:00;;;;;;;18.83;11.30;;;;;;;;;;5055675;28;20176;-71
2023/10/10 12:53:30;;;;;;;16.52;10.07;;;;;;;;;;5080982;28;20212;-72
2023/10/10 12:56:01;;;;;;;18.25;11.30;;;;;;;;;;5095104;28;20516;-73
2023/10/10 12:58:27;;;;;;;19.00;11.35;;;;;;;;;;5079488;28;20180;-71
2023/10/10 13:00:54;;;;;;;15.18;10.63;;;;;;;;;;5079696;28;20243;-69
2023/10/10 13:03:27;;;;;;;17.85;10.88;;;;;;;;;;5083149;28;20211;-69
2023/10/10 13:06:04;;;;;;;18.83;11.13;;;;;;;;;;5088578;28;20586;-71
2023/10/10 13:11:17;;;;;;;18.42;10.45;;;;;;;;;;5079532;28;20201;-69
2023/10/10 13:13:56;;;;;;;19.85;11.30;;;;;;;;;;5087359;28;20208;-72
2023/10/10 13:18:49;;;;;;;21.17;11.52;;;;;;;;;;5108532;28;20172;-72
2023/10/10 13:21:16;;;;;;;16.33;10.68;;;;;;;;;;5078103;28;20502;-72
2023/10/10 13:23:43;;;;;;;18.23;11.95;;;;;;;;;;5086525;28;20191;-73
2023/10/10 13:26:09;;;;;;;21.20;11.70;;;;;;;;;;5082172;28;21727;-73
2023/10/10 13:28:36;;;;;;;17.60;10.23;;;;;;;;;;5064172;28;20196;-71
2023/10/10 13:31:02;;;;;;;21.17;11.20;;;;;;;;;;5079491;28;20199;-73
2023/10/10 13:33:27;;;;;;;17.77;10.80;;;;;;;;;;5079227;28;20207;-72
2023/10/10 13:35:53;;;;;;;25.40;13.10;;;;;;;;;;5069408;28;20188;-73
2023/10/10 13:38:18;;;;;;;16.80;11.18;;;;;;;;;;5079151;28;20185;-71
2023/10/10 13:40:45;;;;;;;22.63;11.35;;;;;;;;;;5080745;28;20207;-73
2023/10/10 13:43:16;;;;;;;20.48;11.32;;;;;;;;;;5078130;28;20184;-75
2023/10/10 13:45:48;;;;;;;15.85;10.43;;;;;;;;;;5083269;28;20191;-71
2023/10/10 13:48:13;;;;;;;16.40;11.30;;;;;;;;;;5084145;28;20208;-70
2023/10/10 13:50:44;;;;;;;16.58;10.27;;;;;;;;;;5073495;28;20223;-71
2023/10/10 13:53:14;;;;;;;19.80;12.07;;;;;;;;;;5079697;28;20208;-70
2023/10/10 13:55:44;;;;;;;21.40;11.20;;;;;;;;;;5076115;28;20275;-72
2023/10/10 13:58:12;;;;;;;17.10;11.38;;;;;;;;;;5088716;28;20460;-73
2023/10/10 14:00:41;;;;;;;19.23;11.30;;;;;;;;;;5083039;28;20196;-71
2023/10/10 14:03:06;;;;;;;18.45;10.98;;;;;;;;;;5094514;28;20215;-73
2023/10/10 14:05:37;;;;;;;18.40;10.88;;;;;;;;;;5100218;28;20259;-72
2023/10/10 14:08:07;;;;;;;17.23;10.93;;;;;;;;;;5064635;28;20184;-70
2023/10/10 14:10:37;;;;;;;23.70;11.23;;;;;;;;;;5085900;28;20252;-72
2023/10/10 14:13:18;;;;;;;17.92;10.55;;;;;;;;;;5082694;28;20224;-73
2023/10/10 14:15:57;;;;;;;19.33;11.65;;;;;;;;;;5078818;28;20250;-73
2023/10/10 14:18:42;;;;;;;20.38;11.18;;;;;;;;;;5074061;28;20547;-71
2023/10/10 14:21:09;;;;;;;25.38;10.95;;;;;;;;;;5088636;28;20298;-70
2023/10/10 14:23:39;;;;;;;21.33;11.38;;;;;;;;;;5094662;28;20596;-72
2023/10/10 14:26:18;;;;;;;16.98;10.60;;;;;;;;;;5081854;28;20223;-73
2023/10/10 14:28:51;;;;;;;20.33;10.85;;;;;;;;;;5077437;28;20645;-71
2023/10/10 14:31:31;;;;;;;21.55;11.20;;;;;;;;;;5094994;28;20506;-70
2023/10/10 14:34:00;;;;;;;15.20;9.57;;;;;;;;;;5078164;28;20200;-70
2023/10/10 14:36:30;;;;;;;18.50;10.88;;;;;;;;;;5073880;28;20243;-72
2023/10/10 14:38:57;;;;;;;17.38;9.88;;;;;;;;;;5072109;28;20845;-73
2023/10/10 14:41:34;;;;;;;16.75;9.80;;;;;;;;;;5077149;28;20239;-69
2023/10/10 14:44:03;;;;;;;18.23;9.70;;;;;;;;;;5088446;28;20187;-74
2023/10/10 14:46:33;;;;;;;16.00;9.15;;;;;;;;;;5074911;28;20619;-72
2023/10/10 14:49:01;;;;;;;21.42;10.15;;;;;;;;;;5090509;28;20222;-72
2023/10/10 14:51:36;;;;;;;19.30;9.32;;;;;;;;;;5079230;28;20195;-70
2023/10/10 14:54:06;;;;;;;17.88;9.20;;;;;;;;;;5080179;28;20212;-72
2023/10/10 14:56:36;;;;;;;16.33;8.65;;;;;;;;;;5086525;28;20187;-70
2023/10/10 14:59:04;;;;;;;14.48;8.57;;;;;;;;;;5081070;28;20184;-73
2023/10/10 15:01:34;;;;;;;17.05;9.45;;;;;;;;;;5070635;28;20252;-73
2023/10/10 15:04:02;;;;;;;18.90;9.20;;;;;;;;;;5087349;28;20300;-71
2023/10/10 15:06:28;;;;;;;14.82;8.75;;;;;;;;;;5096354;28;20294;-70
2023/10/10 15:08:55;;;;;;;19.70;9.30;;;;;;;;;;5091041;28;20462;-71
2023/10/10 15:11:29;;;;;;;17.08;9.40;;;;;;;;;;5076148;28;20238;-72
2023/10/10 15:13:55;;;;;;;17.33;9.15;;;;;;;;;;5084137;28;20337;-70
2023/10/10 15:16:23;;;;;;;20.27;9.02;;;;;;;;;;5050308;28;20194;-73
2023/10/10 15:18:52;;;;;;;15.95;8.90;;;;;;;;;;5088982;28;20184;-69
2023/10/10 15:21:20;;;;;;;15.75;8.85;;;;;;;;;;5080765;28;20180;-71
2023/10/10 15:23:46;;;;;;;17.17;9.02;;;;;;;;;;5072688;28;20342;-72
2023/10/10 15:26:17;;;;;;;12.82;8.52;;;;;;;;;;5065343;28;20298;-71
2023/10/10 15:28:44;;;;;;;16.30;9.70;;;;;;;;;;5091032;28;20180;-72
2023/10/10 15:31:09;;;;;;;18.23;9.32;;;;;;;;;;5074882;28;20258;-72
2023/10/10 15:33:36;;;;;;;16.95;9.05;;;;;;;;;;5051538;28;20369;-74
2023/10/10 15:36:06;;;;;;;15.38;9.15;;;;;;;;;;5094046;28;20184;-73
2023/10/10 15:38:32;;;;;;;20.08;9.25;;;;;;;;;;5086219;28;20263;-74
2023/10/10 15:40:57;;;;;;;11.93;8.10;;;;;;;;;;5086968;28;20276;-71
2023/10/10 15:43:24;;;;;;;17.60;8.68;;;;;;;;;;5061047;28;20208;-72
2023/10/10 15:45:50;;;;;;;16.90;9.00;;;;;;;;;;5063424;28;20267;-72
2023/10/10 15:48:21;;;;;;;13.27;8.50;;;;;;;;;;5086390;28;20275;-73
2023/10/10 15:50:57;;;;;;;17.65;9.40;;;;;;;;;;5071081;28;20279;-73
2023/10/10 15:53:25;;;;;;;18.67;9.80;;;;;;;;;;5084587;28;20218;-72
2023/10/10 15:58:43;;;;;;;18.67;9.90;;;;;;;;;;5083196;28;20521;-72
2023/10/10 16:01:31;;;;;;;20.10;10.13;;;;;;;;;;5080970;28;20258;-70
2023/10/10 16:04:12;;;;;;;19.30;10.40;;;;;;;;;;5091774;28;20257;-71
2023/10/10 16:06:38;;;;;;;18.55;11.00;;;;;;;;;;5056596;28;20341;-70
2023/10/10 16:09:14;;;;;;;16.20;9.95;;;;;;;;;;5082228;28;20328;-72
2023/10/10 16:11:41;;;;;;;19.02;10.43;;;;;;;;;;5080544;28;20195;-70
2023/10/10 16:14:11;;;;;;;16.35;10.18;;;;;;;;;;5084924;28;20212;-72
2023/10/10 16:16:47;;;;;;;17.50;10.25;;;;;;;;;;5067279;28;20230;-70
2023/10/10 16:19:13;;;;;;;18.42;9.73;;;;;;;;;;5093830;28;20186;-70
2023/10/10 16:21:42;;;;;;;16.63;10.48;;;;;;;;;;5091856;28;20222;-70
2023/10/10 16:24:11;;;;;;;17.95;10.43;;;;;;;;;;5081962;28;20189;-72
2023/10/10 16:26:36;;;;;;;18.58;10.65;;;;;;;;;;5078505;28;20673;-69
2023/10/10 16:29:02;;;;;;;15.30;9.52;;;;;;;;;;5082490;28;20287;-70
2023/10/10 16:31:31;;;;;;;17.73;10.55;;;;;;;;;;5105198;28;20230;-71
2023/10/10 16:33:57;;;;;;;17.10;10.15;;;;;;;;;;5097658;28;20631;-71
2023/10/10 16:36:23;;;;;;;20.02;10.13;;;;;;;;;;5089863;28;20195;-71
2023/10/10 16:38:49;;;;;;;17.10;9.73;;;;;;;;;;5048754;28;20626;-71
2023/10/10 16:41:17;;;;;;;16.67;10.23;;;;;;;;;;5100447;28;20191;-71
2023/10/10 16:43:43;;;;;;;20.48;10.75;;;;;;;;;;5087541;28;20635;-70
2023/10/10 16:46:09;;;;;;;16.08;10.13;;;;;;;;;;5086489;28;20229;-71
2023/10/10 16:48:41;;;;;;;17.85;10.43;;;;;;;;;;5088751;28;20202;-69
2023/10/10 16:51:08;;;;;;;14.68;9.63;;;;;;;;;;5098225;28;20279;-70
2023/10/10 16:53:39;;;;;;;19.38;10.02;;;;;;;;;;5098703;28;20191;-71
2023/10/10 16:56:08;;;;;;;20.98;10.55;;;;;;;;;;5069973;28;20257;-71
2023/10/10 16:58:38;;;;;;;16.85;10.13;;;;;;;;;;5090232;28;20216;-70
2023/10/10 17:01:16;;;;;;;18.90;10.38;;;;;;;;;;5085420;28;20267;-71
2023/10/10 17:03:43;;;;;;;20.90;9.85;;;;;;;;;;5080714;28;20405;-71
2023/10/10 17:06:13;;;;;;;14.48;10.43;;;;;;;;;;5058899;28;20269;-71
2023/10/10 17:08:38;;;;;;;18.77;10.25;;;;;;;;;;5060610;28;20596;-72
2023/10/10 17:11:06;;;;;;;16.45;9.85;;;;;;;;;;5068848;28;20184;-71
2023/10/10 17:13:38;;;;;;;19.73;9.85;;;;;;;;;;5077958;28;20208;-72
2023/10/10 17:16:17;;;;;;;17.90;10.32;;;;;;;;;;5070289;28;20212;-71
2023/10/10 17:18:44;;;;;;;17.40;10.20;;;;;;;;;;5077191;28;20568;-71
2023/10/10 17:21:13;;;;;;;17.27;10.43;;;;;;;;;;5067516;28;20181;-71
2023/10/10 17:23:42;;;;;;;18.50;9.48;;;;;;;;;;5063143;28;20173;-70
2023/10/10 17:26:11;;;;;;;21.58;10.43;;;;;;;;;;5060339;28;20216;-71
2023/10/10 17:28:37;;;;;;;19.60;9.55;;;;;;;;;;5059645;28;20188;-71